createdAt,value
2024-01-25T00:00:03.000Z,38
2024-01-25T00:03:36.000Z,37.3
2024-01-25T00:07:09.000Z,42.6
2024-01-25T00:10:42.000Z,45.7
2024-01-25T00:14:15.000Z,44.6
2024-01-25T00:17:47.000Z,44.8
2024-01-25T00:21:20.000Z,35.3
2024-01-25T00:24:53.000Z,43.5
2024-01-25T00:28:26.000Z,39
2024-01-25T00:31:59.000Z,42.8
2024-01-25T00:35:32.000Z,41.2
2024-01-25T00:38:17.000Z,38.6
2024-01-25T00:41:50.000Z,41.1
2024-01-25T00:45:23.000Z,43.2
2024-01-25T00:48:56.000Z,38.6
2024-01-25T00:52:29.000Z,38.6
2024-01-25T00:56:01.000Z,39.8
2024-01-25T00:59:34.000Z,41
2024-01-25T01:03:07.000Z,46.7
2024-01-25T01:06:48.000Z,33.3
2024-01-25T01:10:21.000Z,38.1
2024-01-25T01:13:54.000Z,42
2024-01-25T01:16:39.000Z,40.4
2024-01-25T01:20:12.000Z,47.5
2024-01-25T01:23:45.000Z,40.5
2024-01-25T01:27:18.000Z,46.9
2024-01-25T01:30:50.000Z,38.8
2024-01-25T01:34:23.000Z,45.5
2024-01-25T01:37:56.000Z,37.6
2024-01-25T01:41:29.000Z,40.9
2024-01-25T01:45:02.000Z,46.3
2024-01-25T01:48:35.000Z,43.6
2024-01-25T01:52:09.000Z,42.5
2024-01-25T01:54:54.000Z,43
2024-01-25T01:58:28.000Z,44.6
2024-01-25T02:02:01.000Z,39.9
2024-01-25T02:05:34.000Z,40.8
2024-01-25T02:09:06.000Z,43.1
2024-01-25T02:12:39.000Z,47.1
2024-01-25T02:16:12.000Z,40.4
2024-01-25T02:19:45.000Z,47
2024-01-25T02:23:18.000Z,43.7
2024-01-25T02:26:51.000Z,42.9
2024-01-25T02:30:24.000Z,38.2
2024-01-25T02:33:09.000Z,41.5
2024-01-25T02:36:43.000Z,41.2
2024-01-25T02:40:15.000Z,48
2024-01-25T02:43:48.000Z,37.6
2024-01-25T02:47:21.000Z,38.6
2024-01-25T02:50:54.000Z,48.2
2024-01-25T02:54:28.000Z,52.4
2024-01-25T02:58:01.000Z,40.8
2024-01-25T03:01:33.000Z,50.7
2024-01-25T03:05:06.000Z,42.3
2024-01-25T03:08:39.000Z,38.9
2024-01-25T03:11:24.000Z,39.3
2024-01-25T03:14:57.000Z,40.1
2024-01-25T03:18:33.000Z,39.9
2024-01-25T03:22:06.000Z,45.3
2024-01-25T03:25:39.000Z,48.1
2024-01-25T03:29:12.000Z,40.8
2024-01-25T03:32:45.000Z,40.4
2024-01-25T03:36:18.000Z,39.3
2024-01-25T03:39:50.000Z,45.9
2024-01-25T03:43:24.000Z,44.2
2024-01-25T03:47:09.000Z,42.6
2024-01-25T03:49:54.000Z,50.7
2024-01-25T03:53:27.000Z,40.8
2024-01-25T03:57:00.000Z,42.6
2024-01-25T04:00:33.000Z,37.8
2024-01-25T04:04:07.000Z,46.6
2024-01-25T04:07:40.000Z,46
2024-01-25T04:11:12.000Z,48.6
2024-01-25T04:14:45.000Z,45
2024-01-25T04:18:18.000Z,39.6
2024-01-25T04:21:51.000Z,40.2
2024-01-25T04:25:24.000Z,42
2024-01-25T04:28:13.000Z,47.5
2024-01-25T04:31:46.000Z,46.3
2024-01-25T04:35:19.000Z,43.8
2024-01-25T04:38:52.000Z,37.6
2024-01-25T04:42:25.000Z,42.3
2024-01-25T04:45:58.000Z,42.1
2024-01-25T04:49:30.000Z,39.5
2024-01-25T04:53:03.000Z,39.7
2024-01-25T04:56:36.000Z,39
2024-01-25T05:00:09.000Z,37.4
2024-01-25T05:03:42.000Z,43.4
2024-01-25T05:06:27.000Z,44.5
2024-01-25T05:10:01.000Z,37.7
2024-01-25T05:13:33.000Z,40.9
2024-01-25T05:17:06.000Z,43.8
2024-01-25T05:20:39.000Z,40.2
2024-01-25T05:24:12.000Z,38
2024-01-25T05:27:45.000Z,34.7
2024-01-25T05:31:18.000Z,46.3
2024-01-25T05:34:51.000Z,39.9
2024-01-25T05:38:24.000Z,34.1
2024-01-25T05:41:57.000Z,37.7
2024-01-25T05:44:42.000Z,45.5
2024-01-25T05:48:15.000Z,40.9
2024-01-25T05:51:48.000Z,44.5
2024-01-25T05:55:21.000Z,36.2
2024-01-25T05:58:54.000Z,41.4
2024-01-25T06:02:27.000Z,35.7
2024-01-25T06:06:00.000Z,37.9
2024-01-25T06:09:33.000Z,37.9
2024-01-25T06:13:06.000Z,32.1
2024-01-25T06:16:39.000Z,48.4
2024-01-25T06:20:11.000Z,37.3
2024-01-25T06:22:57.000Z,32.8
2024-01-25T06:26:29.000Z,31.3
2024-01-25T06:30:02.000Z,41.8
2024-01-25T06:33:35.000Z,33.6
2024-01-25T06:37:08.000Z,36.8
2024-01-25T06:40:43.000Z,33.7
2024-01-25T06:44:15.000Z,37.9
2024-01-25T06:47:48.000Z,36.4
2024-01-25T06:51:21.000Z,37.8
2024-01-25T06:54:53.000Z,32.9
2024-01-25T06:58:26.000Z,31.8
2024-01-25T07:01:12.000Z,30.7
2024-01-25T07:04:46.000Z,29.8
2024-01-25T07:08:20.000Z,34
2024-01-25T07:11:53.000Z,34.9
2024-01-25T07:15:26.000Z,40.8
2024-01-25T07:18:59.000Z,33.2
2024-01-25T07:22:33.000Z,33
2024-01-25T07:26:06.000Z,38.6
2024-01-25T07:29:39.000Z,35.3
2024-01-25T07:33:11.000Z,38.7
2024-01-25T07:36:44.000Z,37.1
2024-01-25T07:39:30.000Z,37.8
2024-01-25T07:43:03.000Z,36
2024-01-25T07:46:36.000Z,35.4
2024-01-25T07:50:15.000Z,30.3
2024-01-25T07:53:48.000Z,28
2024-01-25T07:57:21.000Z,25.9
2024-01-25T08:00:54.000Z,37.6
2024-01-25T08:04:27.000Z,31.1
2024-01-25T08:08:00.000Z,32.6
2024-01-25T08:11:33.000Z,34
2024-01-25T08:15:08.000Z,30.3
2024-01-25T08:17:53.000Z,40.6
2024-01-25T08:21:27.000Z,30.3
2024-01-25T08:25:00.000Z,40.1
2024-01-25T08:28:33.000Z,34.9
2024-01-25T08:32:06.000Z,35.1
2024-01-25T08:35:39.000Z,37.1
2024-01-25T08:39:12.000Z,33.7
2024-01-25T08:42:44.000Z,34.7
2024-01-25T08:46:18.000Z,39.5
2024-01-25T08:49:50.000Z,35.3
2024-01-25T08:53:23.000Z,34.9
2024-01-25T08:56:08.000Z,38.7
2024-01-25T08:59:41.000Z,30.1
2024-01-25T09:03:14.000Z,27
2024-01-25T09:06:47.000Z,32
2024-01-25T09:10:20.000Z,30.6
2024-01-25T09:13:53.000Z,24.8
2024-01-25T09:17:26.000Z,24
2024-01-25T09:20:59.000Z,27.4
2024-01-25T09:24:32.000Z,34.5
2024-01-25T09:28:05.000Z,31.2
2024-01-25T09:31:38.000Z,34.4
2024-01-25T09:34:24.000Z,30.3
2024-01-25T09:37:58.000Z,26.2
2024-01-25T09:41:31.000Z,42.6
2024-01-25T09:45:04.000Z,23.4
2024-01-25T09:48:37.000Z,26.7
2024-01-25T09:52:10.000Z,32.6
2024-01-25T09:55:42.000Z,26.7
2024-01-25T09:59:15.000Z,29.4
2024-01-25T10:02:48.000Z,34.9
2024-01-25T10:06:21.000Z,29.4
2024-01-25T10:09:54.000Z,32.5
2024-01-25T10:12:40.000Z,29
2024-01-25T10:16:12.000Z,34.7
2024-01-25T10:20:15.000Z,28.5
2024-01-25T10:23:49.000Z,25.4
2024-01-25T10:27:23.000Z,30.4
2024-01-25T10:31:02.000Z,30.9
2024-01-25T10:34:35.000Z,33.7
2024-01-25T10:38:08.000Z,30
2024-01-25T10:41:42.000Z,23.9
2024-01-25T10:45:16.000Z,35.1
2024-01-25T10:48:48.000Z,31.4
2024-01-25T10:51:34.000Z,30.7
2024-01-25T10:55:06.000Z,29.9
2024-01-25T10:58:39.000Z,33.6
2024-01-25T11:02:12.000Z,34.6
2024-01-25T11:05:45.000Z,37.2
2024-01-25T11:09:18.000Z,29.5
2024-01-25T11:12:51.000Z,33.5
2024-01-25T11:16:24.000Z,29
2024-01-25T11:19:56.000Z,36.6
2024-01-25T11:23:29.000Z,32.8
2024-01-25T11:27:02.000Z,32.1
2024-01-25T11:29:47.000Z,29.1
2024-01-25T11:33:20.000Z,23
2024-01-25T11:36:53.000Z,34.6
2024-01-25T11:40:26.000Z,32
2024-01-25T11:44:04.000Z,28.3
2024-01-25T11:47:37.000Z,29.1
2024-01-25T11:51:10.000Z,31.2
2024-01-25T11:54:43.000Z,35
2024-01-25T11:58:15.000Z,37.7
2024-01-25T12:01:49.000Z,32
2024-01-25T12:05:22.000Z,33.9
2024-01-25T12:08:08.000Z,31.3
2024-01-25T12:11:40.000Z,28
2024-01-25T12:15:14.000Z,26.8
2024-01-25T12:18:47.000Z,31.9
2024-01-25T12:22:20.000Z,27.7
2024-01-25T12:25:53.000Z,30.9
2024-01-25T12:29:26.000Z,27.3
2024-01-25T12:32:58.000Z,34.3
2024-01-25T12:36:34.000Z,29.4
2024-01-25T12:40:07.000Z,28.6
2024-01-25T12:43:40.000Z,29.6
2024-01-25T12:49:58.000Z,31.7
2024-01-25T12:53:32.000Z,30.3
2024-01-25T12:57:06.000Z,32.2
2024-01-25T13:00:39.000Z,27.1
2024-01-25T13:04:12.000Z,34.5
2024-01-25T13:07:46.000Z,27.1
2024-01-25T13:11:19.000Z,29.5
2024-01-25T13:14:52.000Z,32.2
2024-01-25T13:18:24.000Z,35.9
2024-01-25T13:21:57.000Z,33.5
2024-01-25T13:24:42.000Z,30.6
2024-01-25T13:28:15.000Z,27.6
2024-01-25T13:31:49.000Z,29.3
2024-01-25T13:35:22.000Z,32.6
2024-01-25T13:38:55.000Z,31.4
2024-01-25T13:42:28.000Z,31.7
2024-01-25T13:46:00.000Z,31.3
2024-01-25T13:49:33.000Z,27.9
2024-01-25T13:53:06.000Z,34.2
2024-01-25T13:56:39.000Z,36.9
2024-01-25T14:00:11.000Z,34.9
2024-01-25T14:02:56.000Z,30.7
2024-01-25T14:06:30.000Z,38.3
2024-01-25T14:10:03.000Z,37.2
2024-01-25T14:13:36.000Z,27.2
2024-01-25T14:17:09.000Z,33.6
2024-01-25T14:20:42.000Z,34.5
2024-01-25T14:24:31.000Z,32
2024-01-25T14:28:03.000Z,34.9
2024-01-25T14:31:36.000Z,32.2
2024-01-25T14:35:09.000Z,28.1
2024-01-25T14:38:42.000Z,36.2
2024-01-25T14:41:28.000Z,29
2024-01-25T14:45:00.000Z,30.5
2024-01-25T14:48:33.000Z,32.8
2024-01-25T14:52:06.000Z,29.5
2024-01-25T14:55:38.000Z,33.8
2024-01-25T14:59:11.000Z,69.2
2024-01-25T15:02:44.000Z,35.9
2024-01-25T15:06:20.000Z,33.8
2024-01-25T15:09:55.000Z,30.9
2024-01-25T15:13:29.000Z,33.5
2024-01-25T15:17:02.000Z,40.2
2024-01-25T15:19:47.000Z,35.7
2024-01-25T15:23:20.000Z,31.8
2024-01-25T15:26:53.000Z,31.5
2024-01-25T15:30:25.000Z,29.7
2024-01-25T15:33:58.000Z,31
2024-01-25T15:37:31.000Z,29.8
2024-01-25T15:41:04.000Z,28.6
2024-01-25T15:44:37.000Z,34
2024-01-25T15:48:09.000Z,32.9
2024-01-25T15:51:42.000Z,26.8
2024-01-25T15:55:15.000Z,34.1
2024-01-25T15:58:00.000Z,26.9
2024-01-25T16:01:33.000Z,30.9
2024-01-25T16:05:06.000Z,30.5
2024-01-25T16:08:38.000Z,29.6
2024-01-25T16:12:11.000Z,29
2024-01-25T16:15:46.000Z,26.8
2024-01-25T16:19:19.000Z,34.3
2024-01-25T16:22:52.000Z,34.8
2024-01-25T16:26:25.000Z,31.9
2024-01-25T16:29:57.000Z,36.2
2024-01-25T16:33:30.000Z,36.4
2024-01-25T16:36:16.000Z,35.5
2024-01-25T16:39:48.000Z,27.9
2024-01-25T16:43:22.000Z,31.2
2024-01-25T16:46:55.000Z,28.5
2024-01-25T16:50:28.000Z,23.9
2024-01-25T16:54:01.000Z,49.7
2024-01-25T16:57:34.000Z,33.5
2024-01-25T17:01:08.000Z,27.6
2024-01-25T17:04:40.000Z,34.2
2024-01-25T17:08:13.000Z,23.6
2024-01-25T17:11:46.000Z,27.1
2024-01-25T17:14:32.000Z,28.5
2024-01-25T17:18:04.000Z,30.1
2024-01-25T17:21:37.000Z,30.2
2024-01-25T17:25:10.000Z,31.2
2024-01-25T17:28:43.000Z,26.5
2024-01-25T17:32:16.000Z,27
2024-01-25T17:35:49.000Z,26.4
2024-01-25T17:39:22.000Z,25.6
2024-01-25T17:42:54.000Z,23.9
2024-01-25T17:46:27.000Z,22.8
2024-01-25T17:50:00.000Z,25.4
2024-01-25T17:52:45.000Z,29.5
2024-01-25T17:56:18.000Z,26.3
2024-01-25T17:59:51.000Z,25.5
2024-01-25T18:03:24.000Z,28.6
2024-01-25T18:06:58.000Z,29
2024-01-25T18:10:30.000Z,24.7
2024-01-25T18:14:03.000Z,33.4
2024-01-25T18:17:36.000Z,24.5
2024-01-25T18:21:09.000Z,24.8
2024-01-25T18:24:42.000Z,25.3
2024-01-25T18:28:16.000Z,27.9
2024-01-25T18:31:01.000Z,28.3
2024-01-25T18:34:35.000Z,30.5
2024-01-25T18:38:10.000Z,30.4
2024-01-25T18:41:43.000Z,35.9
2024-01-25T18:45:16.000Z,30.6
2024-01-25T18:48:49.000Z,26.4
2024-01-25T18:52:22.000Z,25.7
2024-01-25T18:55:54.000Z,31.9
2024-01-25T18:59:28.000Z,21.9
2024-01-25T19:03:00.000Z,28.2
2024-01-25T19:06:33.000Z,23.9
2024-01-25T19:09:18.000Z,26.6
2024-01-25T19:12:51.000Z,26.9
2024-01-25T19:16:24.000Z,26.4
2024-01-25T19:19:57.000Z,22.6
2024-01-25T19:23:30.000Z,25.2
2024-01-25T19:27:03.000Z,30.1
2024-01-25T19:30:35.000Z,21.7
2024-01-25T19:34:08.000Z,35.1
2024-01-25T19:37:42.000Z,40.2
2024-01-25T19:41:18.000Z,26.9
2024-01-25T19:44:50.000Z,30.4
2024-01-25T19:47:36.000Z,37.3
2024-01-25T19:51:10.000Z,41
2024-01-25T19:54:43.000Z,43
2024-01-25T19:58:18.000Z,37.1
2024-01-25T20:01:51.000Z,53.3
2024-01-25T20:05:24.000Z,36.8
2024-01-25T20:08:57.000Z,56.7
2024-01-25T20:12:30.000Z,51.8
2024-01-25T20:16:02.000Z,53.8
2024-01-25T20:19:35.000Z,52.4
2024-01-25T20:23:08.000Z,57.5
2024-01-25T20:25:53.000Z,51.3
2024-01-25T20:29:26.000Z,34.7
2024-01-25T20:32:59.000Z,33.6
2024-01-25T20:36:32.000Z,31.5
2024-01-25T20:40:05.000Z,34.2
2024-01-25T20:43:38.000Z,46.9
2024-01-25T20:47:10.000Z,45.4
2024-01-25T20:50:43.000Z,39.4
2024-01-25T20:54:17.000Z,54.3
2024-01-25T20:57:50.000Z,53.8
2024-01-25T21:01:23.000Z,45.9
2024-01-25T21:04:08.000Z,41.7
2024-01-25T21:07:41.000Z,52.2
2024-01-25T21:11:14.000Z,49.1
2024-01-25T21:14:47.000Z,41.2
2024-01-25T21:18:25.000Z,41.7
2024-01-25T21:21:58.000Z,48.3
2024-01-25T21:25:31.000Z,48.8
2024-01-25T21:29:04.000Z,68.8
2024-01-25T21:32:36.000Z,56.4
2024-01-25T21:36:10.000Z,60.8
2024-01-25T21:39:42.000Z,41.3
2024-01-25T21:42:28.000Z,52.9
2024-01-25T21:46:00.000Z,48.2
2024-01-25T21:49:33.000Z,45.3
2024-01-25T21:53:07.000Z,50.2
2024-01-25T21:56:40.000Z,47.1
2024-01-25T22:00:13.000Z,38
2024-01-25T22:03:47.000Z,41.4
2024-01-25T22:07:20.000Z,51.7
2024-01-25T22:10:53.000Z,35.7
2024-01-25T22:14:26.000Z,56.7
2024-01-25T22:17:59.000Z,50.3
2024-01-25T22:20:44.000Z,36.3
2024-01-25T22:24:17.000Z,34.7
2024-01-25T22:27:50.000Z,67.5
2024-01-25T22:31:23.000Z,53.2
2024-01-25T22:34:56.000Z,43.8
2024-01-25T22:38:28.000Z,76.9
2024-01-25T22:42:01.000Z,56.5
2024-01-25T22:45:34.000Z,44.4
2024-01-25T22:49:07.000Z,37.4
2024-01-25T22:52:40.000Z,45.6
2024-01-25T22:56:14.000Z,47
2024-01-25T22:58:59.000Z,43.7
2024-01-25T23:02:32.000Z,51.1
2024-01-25T23:06:05.000Z,42.6
2024-01-25T23:09:38.000Z,57
2024-01-25T23:13:12.000Z,32.6
2024-01-25T23:16:46.000Z,46.1
2024-01-25T23:20:20.000Z,35.5
2024-01-25T23:23:53.000Z,35.7
2024-01-25T23:27:26.000Z,43.7
2024-01-25T23:30:58.000Z,37.7
2024-01-25T23:34:31.000Z,33.3
2024-01-25T23:37:17.000Z,48.5
2024-01-25T23:40:51.000Z,48.2
2024-01-25T23:44:24.000Z,43.8
2024-01-25T23:47:57.000Z,52.5
2024-01-25T23:51:31.000Z,36
2024-01-25T23:55:04.000Z,50.6
2024-01-25T23:58:36.000Z,44
